sensor_id;sensor_type;location;lat;lon;timestamp;pressure;altitude;pressure_sealevel;temperature;humidity
54144;BME280;40050;47.324;18.792;2023-02-12T00:00:53;1016.35;;;5.74;66.71
54144;BME280;40050;47.324;18.792;2023-02-12T00:02:56;1016.37;;;5.77;66.70
54144;BME280;40050;47.324;18.792;2023-02-12T00:04:58;1016.40;;;5.77;66.78
54144;BME280;40050;47.324;18.792;2023-02-12T00:07:01;1016.34;;;5.79;66.83
54144;BME280;40050;47.324;18.792;2023-02-12T00:09:03;1016.37;;;5.78;66.75
54144;BME280;40050;47.324;18.792;2023-02-12T00:11:16;1016.36;;;5.76;66.83
54144;BME280;40050;47.324;18.792;2023-02-12T00:13:18;1016.32;;;5.76;66.64
54144;BME280;40050;47.324;18.792;2023-02-12T00:15:21;1016.34;;;5.76;66.53
54144;BME280;40050;47.324;18.792;2023-02-12T00:17:23;1016.47;;;5.76;66.63
54144;BME280;40050;47.324;18.792;2023-02-12T00:19:26;1016.50;;;5.72;66.74
54144;BME280;40050;47.324;18.792;2023-02-12T00:21:28;1016.44;;;5.70;67.02
54144;BME280;40050;47.324;18.792;2023-02-12T00:23:31;1016.51;;;5.67;67.10
54144;BME280;40050;47.324;18.792;2023-02-12T00:25:34;1016.48;;;5.67;67.12
54144;BME280;40050;47.324;18.792;2023-02-12T00:27:36;1016.48;;;5.65;67.20
54144;BME280;40050;47.324;18.792;2023-02-12T00:29:39;1016.52;;;5.63;67.26
54144;BME280;40050;47.324;18.792;2023-02-12T00:31:41;1016.55;;;5.61;67.38
54144;BME280;40050;47.324;18.792;2023-02-12T00:33:44;1016.68;;;5.61;67.24
54144;BME280;40050;47.324;18.792;2023-02-12T00:35:53;1016.76;;;5.63;67.07
54144;BME280;40050;47.324;18.792;2023-02-12T00:37:56;1016.87;;;5.64;66.93
54144;BME280;40050;47.324;18.792;2023-02-12T00:39:59;1016.90;;;5.65;66.79
54144;BME280;40050;47.324;18.792;2023-02-12T00:42:01;1016.94;;;5.67;66.84
54144;BME280;40050;47.324;18.792;2023-02-12T00:44:03;1017.01;;;5.68;66.57
54144;BME280;40050;47.324;18.792;2023-02-12T00:46:06;1016.95;;;5.69;66.60
54144;BME280;40050;47.324;18.792;2023-02-12T00:48:08;1016.99;;;5.70;66.53
54144;BME280;40050;47.324;18.792;2023-02-12T00:50:11;1016.98;;;5.65;66.61
54144;BME280;40050;47.324;18.792;2023-02-12T00:52:13;1017.00;;;5.67;66.60
54144;BME280;40050;47.324;18.792;2023-02-12T00:54:16;1016.98;;;5.65;67.10
54144;BME280;40050;47.324;18.792;2023-02-12T00:56:18;1017.02;;;5.68;66.98
54144;BME280;40050;47.324;18.792;2023-02-12T00:58:21;1017.00;;;5.65;66.99
54144;BME280;40050;47.324;18.792;2023-02-12T01:00:24;1016.95;;;5.65;66.94
54144;BME280;40050;47.324;18.792;2023-02-12T01:02:26;1016.97;;;5.67;67.06
54144;BME280;40050;47.324;18.792;2023-02-12T01:04:29;1016.88;;;5.67;67.15
54144;BME280;40050;47.324;18.792;2023-02-12T01:06:31;1016.83;;;5.64;67.34
54144;BME280;40050;47.324;18.792;2023-02-12T01:08:33;1016.73;;;5.58;67.73
54144;BME280;40050;47.324;18.792;2023-02-12T01:10:36;1016.74;;;5.56;67.89
54144;BME280;40050;47.324;18.792;2023-02-12T01:12:38;1016.69;;;5.50;68.27
54144;BME280;40050;47.324;18.792;2023-02-12T01:14:41;1016.70;;;5.46;68.79
54144;BME280;40050;47.324;18.792;2023-02-12T01:16:44;1016.74;;;5.43;69.02
54144;BME280;40050;47.324;18.792;2023-02-12T01:18:46;1016.69;;;5.38;69.28
54144;BME280;40050;47.324;18.792;2023-02-12T01:20:49;1016.65;;;5.38;69.33
54144;BME280;40050;47.324;18.792;2023-02-12T01:22:51;1016.56;;;5.37;69.46
54144;BME280;40050;47.324;18.792;2023-02-12T01:24:54;1016.63;;;5.35;69.65
54144;BME280;40050;47.324;18.792;2023-02-12T01:26:56;1016.56;;;5.32;69.69
54144;BME280;40050;47.324;18.792;2023-02-12T01:29:00;1016.53;;;5.34;69.74
54144;BME280;40050;47.324;18.792;2023-02-12T01:31:06;1016.55;;;5.36;69.77
54144;BME280;40050;47.324;18.792;2023-02-12T01:33:09;1016.56;;;5.35;70.03
54144;BME280;40050;47.324;18.792;2023-02-12T01:35:11;1016.56;;;5.39;69.76
54144;BME280;40050;47.324;18.792;2023-02-12T01:37:14;1016.54;;;5.39;69.76
54144;BME280;40050;47.324;18.792;2023-02-12T01:39:17;1016.67;;;5.40;69.82
54144;BME280;40050;47.324;18.792;2023-02-12T01:41:20;1016.69;;;5.42;69.89
54144;BME280;40050;47.324;18.792;2023-02-12T01:43:24;1016.66;;;5.41;70.13
54144;BME280;40050;47.324;18.792;2023-02-12T01:45:44;1016.69;;;5.38;70.37
54144;BME280;40050;47.324;18.792;2023-02-12T01:47:44;1016.72;;;5.42;70.12
54144;BME280;40050;47.324;18.792;2023-02-12T01:49:46;1016.73;;;5.40;70.13
54144;BME280;40050;47.324;18.792;2023-02-12T01:51:52;1016.66;;;5.40;70.01
54144;BME280;40050;47.324;18.792;2023-02-12T01:53:55;1016.70;;;5.40;70.02
54144;BME280;40050;47.324;18.792;2023-02-12T01:56:00;1016.79;;;5.44;69.73
54144;BME280;40050;47.324;18.792;2023-02-12T01:58:03;1016.79;;;5.46;69.69
54144;BME280;40050;47.324;18.792;2023-02-12T02:00:07;1016.84;;;5.48;69.66
54144;BME280;40050;47.324;18.792;2023-02-12T02:02:10;1016.77;;;5.48;69.64
54144;BME280;40050;47.324;18.792;2023-02-12T02:04:18;1016.75;;;5.47;69.61
54144;BME280;40050;47.324;18.792;2023-02-12T02:06:27;1016.68;;;5.46;69.73
54144;BME280;40050;47.324;18.792;2023-02-12T02:08:31;1016.72;;;5.46;69.66
54144;BME280;40050;47.324;18.792;2023-02-12T02:10:35;1016.81;;;5.47;69.67
54144;BME280;40050;47.324;18.792;2023-02-12T02:12:37;1016.85;;;5.44;69.84
54144;BME280;40050;47.324;18.792;2023-02-12T02:14:40;1016.71;;;5.37;70.09
54144;BME280;40050;47.324;18.792;2023-02-12T02:16:45;1016.75;;;5.33;70.53
54144;BME280;40050;47.324;18.792;2023-02-12T02:19:39;1016.67;;;5.26;70.92
54144;BME280;40050;47.324;18.792;2023-02-12T02:23:39;1016.60;;;5.18;71.20
54144;BME280;40050;47.324;18.792;2023-02-12T02:30:42;1016.51;;;5.08;71.70
54144;BME280;40050;47.324;18.792;2023-02-12T02:32:49;1016.56;;;5.06;71.58
54144;BME280;40050;47.324;18.792;2023-02-12T02:34:58;1016.64;;;5.06;71.52
54144;BME280;40050;47.324;18.792;2023-02-12T02:37:19;1016.63;;;5.02;71.69
54144;BME280;40050;47.324;18.792;2023-02-12T02:39:28;1016.51;;;4.95;71.74
54144;BME280;40050;47.324;18.792;2023-02-12T02:41:39;1016.63;;;4.96;71.80
54144;BME280;40050;47.324;18.792;2023-02-12T02:43:45;1016.62;;;4.91;71.90
54144;BME280;40050;47.324;18.792;2023-02-12T02:45:54;1016.73;;;4.94;71.93
54144;BME280;40050;47.324;18.792;2023-02-12T02:48:20;1016.83;;;4.91;72.24
54144;BME280;40050;47.324;18.792;2023-02-12T02:50:13;1016.95;;;4.93;71.94
54144;BME280;40050;47.324;18.792;2023-02-12T02:52:19;1016.89;;;4.93;71.91
54144;BME280;40050;47.324;18.792;2023-02-12T02:54:29;1016.88;;;4.92;71.83
54144;BME280;40050;47.324;18.792;2023-02-12T02:56:34;1016.91;;;4.90;71.80
54144;BME280;40050;47.324;18.792;2023-02-12T02:58:38;1017.09;;;4.92;71.75
54144;BME280;40050;47.324;18.792;2023-02-12T03:00:43;1016.99;;;4.84;71.61
54144;BME280;40050;47.324;18.792;2023-02-12T03:02:48;1017.04;;;4.86;71.83
54144;BME280;40050;47.324;18.792;2023-02-12T03:04:53;1017.17;;;4.83;72.14
54144;BME280;40050;47.324;18.792;2023-02-12T03:06:59;1017.10;;;4.76;72.42
54144;BME280;40050;47.324;18.792;2023-02-12T03:09:05;1017.09;;;4.76;72.51
54144;BME280;40050;47.324;18.792;2023-02-12T03:11:15;1017.04;;;4.67;72.45
54144;BME280;40050;47.324;18.792;2023-02-12T03:13:23;1017.14;;;4.64;73.23
54144;BME280;40050;47.324;18.792;2023-02-12T03:15:31;1017.17;;;4.65;73.12
54144;BME280;40050;47.324;18.792;2023-02-12T03:17:38;1017.13;;;4.61;73.48
54144;BME280;40050;47.324;18.792;2023-02-12T03:19:45;1017.26;;;4.62;73.42
54144;BME280;40050;47.324;18.792;2023-02-12T03:22:07;1017.20;;;4.60;73.41
54144;BME280;40050;47.324;18.792;2023-02-12T03:24:28;1017.27;;;4.64;73.33
54144;BME280;40050;47.324;18.792;2023-02-12T03:26:46;1017.27;;;4.61;73.22
54144;BME280;40050;47.324;18.792;2023-02-12T03:28:50;1017.38;;;4.61;73.36
54144;BME280;40050;47.324;18.792;2023-02-12T03:30:58;1017.39;;;4.60;73.49
54144;BME280;40050;47.324;18.792;2023-02-12T03:33:18;1017.47;;;4.59;73.43
54144;BME280;40050;47.324;18.792;2023-02-12T03:35:24;1017.51;;;4.58;73.38
54144;BME280;40050;47.324;18.792;2023-02-12T03:37:36;1017.49;;;4.55;73.52
54144;BME280;40050;47.324;18.792;2023-02-12T03:39:53;1017.55;;;4.52;73.63
54144;BME280;40050;47.324;18.792;2023-02-12T03:42:16;1017.49;;;4.47;73.95
54144;BME280;40050;47.324;18.792;2023-02-12T03:44:19;1017.41;;;4.41;74.18
54144;BME280;40050;47.324;18.792;2023-02-12T03:46:26;1017.45;;;4.38;74.51
54144;BME280;40050;47.324;18.792;2023-02-12T03:48:35;1017.41;;;4.38;74.54
54144;BME280;40050;47.324;18.792;2023-02-12T03:50:49;1017.41;;;4.36;74.72
54144;BME280;40050;47.324;18.792;2023-02-12T03:52:53;1017.38;;;4.30;74.70
54144;BME280;40050;47.324;18.792;2023-02-12T03:54:56;1017.50;;;4.38;74.60
54144;BME280;40050;47.324;18.792;2023-02-12T03:57:06;1017.49;;;4.37;74.38
54144;BME280;40050;47.324;18.792;2023-02-12T03:59:10;1017.63;;;4.41;74.19
54144;BME280;40050;47.324;18.792;2023-02-12T04:01:13;1017.67;;;4.40;73.98
54144;BME280;40050;47.324;18.792;2023-02-12T04:03:15;1017.68;;;4.39;73.78
54144;BME280;40050;47.324;18.792;2023-02-12T04:05:22;1017.74;;;4.44;73.74
54144;BME280;40050;47.324;18.792;2023-02-12T04:07:25;1017.75;;;4.42;73.76
54144;BME280;40050;47.324;18.792;2023-02-12T04:09:27;1017.82;;;4.44;73.59
54144;BME280;40050;47.324;18.792;2023-02-12T04:14:00;1017.91;;;4.45;74.12
54144;BME280;40050;47.324;18.792;2023-02-12T04:18:33;1017.94;;;4.46;74.35
54144;BME280;40050;47.324;18.792;2023-02-12T04:25:40;1018.11;;;4.55;74.76
54144;BME280;40050;47.324;18.792;2023-02-12T04:27:38;1018.11;;;4.55;74.83
54144;BME280;40050;47.324;18.792;2023-02-12T04:30:04;1018.11;;;4.57;74.88
54144;BME280;40050;47.324;18.792;2023-02-12T04:32:51;1018.15;;;4.60;74.87
54144;BME280;40050;47.324;18.792;2023-02-12T04:34:32;1018.23;;;4.58;74.87
54144;BME280;40050;47.324;18.792;2023-02-12T04:36:39;1018.25;;;4.56;74.80
54144;BME280;40050;47.324;18.792;2023-02-12T04:38:47;1018.27;;;4.56;74.81
54144;BME280;40050;47.324;18.792;2023-02-12T04:40:53;1018.20;;;4.58;74.67
54144;BME280;40050;47.324;18.792;2023-02-12T04:42:55;1018.23;;;4.55;74.66
54144;BME280;40050;47.324;18.792;2023-02-12T04:44:58;1018.32;;;4.53;74.69
54144;BME280;40050;47.324;18.792;2023-02-12T04:47:00;1018.27;;;4.50;74.67
54144;BME280;40050;47.324;18.792;2023-02-12T04:49:02;1018.30;;;4.51;74.59
54144;BME280;40050;47.324;18.792;2023-02-12T04:51:05;1018.30;;;4.54;74.50
54144;BME280;40050;47.324;18.792;2023-02-12T04:53:07;1018.29;;;4.53;74.50
54144;BME280;40050;47.324;18.792;2023-02-12T04:55:10;1018.41;;;4.58;74.39
54144;BME280;40050;47.324;18.792;2023-02-12T04:57:13;1018.39;;;4.57;74.19
54144;BME280;40050;47.324;18.792;2023-02-12T04:59:15;1018.48;;;4.53;74.20
54144;BME280;40050;47.324;18.792;2023-02-12T05:01:18;1018.44;;;4.50;74.26
54144;BME280;40050;47.324;18.792;2023-02-12T05:03:20;1018.49;;;4.48;74.32
54144;BME280;40050;47.324;18.792;2023-02-12T05:05:23;1018.25;;;4.30;74.20
54144;BME280;40050;47.324;18.792;2023-02-12T05:07:25;1018.61;;;4.45;74.31
54144;BME280;40050;47.324;18.792;2023-02-12T05:09:28;1018.67;;;4.46;74.25
54144;BME280;40050;47.324;18.792;2023-02-12T05:11:30;1018.65;;;4.40;74.35
54144;BME280;40050;47.324;18.792;2023-02-12T05:13:33;1018.62;;;4.43;74.30
54144;BME280;40050;47.324;18.792;2023-02-12T05:15:37;1018.57;;;4.39;74.34
54144;BME280;40050;47.324;18.792;2023-02-12T05:17:39;1018.68;;;4.40;74.34
54144;BME280;40050;47.324;18.792;2023-02-12T05:19:42;1018.82;;;4.41;74.24
54144;BME280;40050;47.324;18.792;2023-02-12T05:21:44;1018.75;;;4.36;74.13
54144;BME280;40050;47.324;18.792;2023-02-12T05:23:47;1018.77;;;4.37;74.05
54144;BME280;40050;47.324;18.792;2023-02-12T05:25:49;1018.79;;;4.38;73.94
54144;BME280;40050;47.324;18.792;2023-02-12T05:27:51;1018.73;;;4.36;73.86
54144;BME280;40050;47.324;18.792;2023-02-12T05:29:54;1018.88;;;4.38;73.74
54144;BME280;40050;47.324;18.792;2023-02-12T05:31:56;1018.93;;;4.32;73.90
54144;BME280;40050;47.324;18.792;2023-02-12T05:33:59;1018.98;;;4.30;73.99
54144;BME280;40050;47.324;18.792;2023-02-12T05:36:05;1018.99;;;4.29;74.02
54144;BME280;40050;47.324;18.792;2023-02-12T05:38:08;1019.02;;;4.28;74.02
54144;BME280;40050;47.324;18.792;2023-02-12T05:40:11;1019.01;;;4.28;74.05
54144;BME280;40050;47.324;18.792;2023-02-12T05:42:13;1019.01;;;4.28;74.08
54144;BME280;40050;47.324;18.792;2023-02-12T05:44:16;1018.97;;;4.29;74.16
54144;BME280;40050;47.324;18.792;2023-02-12T05:46:18;1019.12;;;4.34;74.27
54144;BME280;40050;47.324;18.792;2023-02-12T05:48:21;1019.10;;;4.30;74.52
54144;BME280;40050;47.324;18.792;2023-02-12T05:50:23;1019.03;;;4.19;74.54
54144;BME280;40050;47.324;18.792;2023-02-12T05:52:26;1019.16;;;4.26;74.57
54144;BME280;40050;47.324;18.792;2023-02-12T05:54:28;1019.19;;;4.24;74.64
54144;BME280;40050;47.324;18.792;2023-02-12T05:56:41;1019.16;;;4.22;74.84
54144;BME280;40050;47.324;18.792;2023-02-12T05:58:44;1019.25;;;4.20;74.78
54144;BME280;40050;47.324;18.792;2023-02-12T06:00:47;1019.43;;;4.24;74.72
54144;BME280;40050;47.324;18.792;2023-02-12T06:02:50;1019.43;;;4.22;74.86
54144;BME280;40050;47.324;18.792;2023-02-12T06:04:52;1019.46;;;4.31;74.82
54144;BME280;40050;47.324;18.792;2023-02-12T06:06:55;1019.35;;;4.24;74.99
54144;BME280;40050;47.324;18.792;2023-02-12T06:08:57;1019.45;;;4.26;75.26
54144;BME280;40050;47.324;18.792;2023-02-12T06:11:00;1019.50;;;4.31;75.29
54144;BME280;40050;47.324;18.792;2023-02-12T06:13:03;1019.49;;;4.32;75.31
54144;BME280;40050;47.324;18.792;2023-02-12T06:15:06;1019.48;;;4.33;75.54
54144;BME280;40050;47.324;18.792;2023-02-12T06:17:08;1019.51;;;4.37;75.55
54144;BME280;40050;47.324;18.792;2023-02-12T06:19:11;1019.52;;;4.38;75.95
54144;BME280;40050;47.324;18.792;2023-02-12T06:21:14;1019.65;;;4.41;76.12
54144;BME280;40050;47.324;18.792;2023-02-12T06:23:16;1019.63;;;4.36;76.25
54144;BME280;40050;47.324;18.792;2023-02-12T06:25:19;1019.63;;;4.35;76.41
54144;BME280;40050;47.324;18.792;2023-02-12T06:27:21;1019.64;;;4.30;76.48
54144;BME280;40050;47.324;18.792;2023-02-12T06:29:24;1019.77;;;4.40;76.36
54144;BME280;40050;47.324;18.792;2023-02-12T06:31:27;1019.83;;;4.43;76.23
54144;BME280;40050;47.324;18.792;2023-02-12T06:33:30;1019.79;;;4.41;76.35
54144;BME280;40050;47.324;18.792;2023-02-12T06:35:36;1019.67;;;4.36;76.30
54144;BME280;40050;47.324;18.792;2023-02-12T06:37:38;1019.70;;;4.47;76.18
54144;BME280;40050;47.324;18.792;2023-02-12T06:39:41;1019.80;;;4.47;76.04
54144;BME280;40050;47.324;18.792;2023-02-12T06:41:43;1019.88;;;4.47;76.03
54144;BME280;40050;47.324;18.792;2023-02-12T06:43:46;1019.91;;;4.53;75.89
54144;BME280;40050;47.324;18.792;2023-02-12T06:45:48;1019.82;;;4.55;75.82
54144;BME280;40050;47.324;18.792;2023-02-12T06:47:51;1019.76;;;4.62;75.74
54144;BME280;40050;47.324;18.792;2023-02-12T06:49:54;1019.77;;;4.62;75.75
54144;BME280;40050;47.324;18.792;2023-02-12T06:51:56;1019.81;;;4.58;75.86
54144;BME280;40050;47.324;18.792;2023-02-12T06:53:58;1019.87;;;4.57;76.06
54144;BME280;40050;47.324;18.792;2023-02-12T06:56:02;1019.83;;;4.63;76.04
54144;BME280;40050;47.324;18.792;2023-02-12T06:58:04;1019.91;;;4.66;76.07
54144;BME280;40050;47.324;18.792;2023-02-12T07:00:07;1019.65;;;4.47;76.27
54144;BME280;40050;47.324;18.792;2023-02-12T07:02:10;1019.94;;;4.63;76.32
54144;BME280;40050;47.324;18.792;2023-02-12T07:04:13;1020.06;;;4.76;76.30
54144;BME280;40050;47.324;18.792;2023-02-12T07:06:15;1019.98;;;4.79;76.32
54144;BME280;40050;47.324;18.792;2023-02-12T07:08:18;1020.03;;;4.86;76.34
54144;BME280;40050;47.324;18.792;2023-02-12T07:10:20;1020.01;;;4.91;76.37
54144;BME280;40050;47.324;18.792;2023-02-12T07:12:23;1020.00;;;4.92;76.53
54144;BME280;40050;47.324;18.792;2023-02-12T07:14:25;1020.03;;;4.93;76.70
54144;BME280;40050;47.324;18.792;2023-02-12T07:16:28;1020.05;;;4.95;76.87
54144;BME280;40050;47.324;18.792;2023-02-12T07:18:30;1020.09;;;4.97;76.96
54144;BME280;40050;47.324;18.792;2023-02-12T07:20:33;1020.17;;;5.03;77.09
54144;BME280;40050;47.324;18.792;2023-02-12T07:22:35;1020.16;;;5.07;77.08
54144;BME280;40050;47.324;18.792;2023-02-12T07:24:38;1020.05;;;5.05;77.04
54144;BME280;40050;47.324;18.792;2023-02-12T07:26:40;1020.13;;;5.13;77.07
54144;BME280;40050;47.324;18.792;2023-02-12T07:28:43;1020.15;;;5.18;77.10
54144;BME280;40050;47.324;18.792;2023-02-12T07:30:45;1020.20;;;5.20;76.96
54144;BME280;40050;47.324;18.792;2023-02-12T07:32:48;1020.14;;;5.20;76.87
54144;BME280;40050;47.324;18.792;2023-02-12T07:34:51;1020.36;;;5.40;76.81
54144;BME280;40050;47.324;18.792;2023-02-12T07:36:53;1020.42;;;5.46;76.72
54144;BME280;40050;47.324;18.792;2023-02-12T07:38:56;1020.49;;;5.51;76.61
54144;BME280;40050;47.324;18.792;2023-02-12T07:41:08;1020.57;;;5.54;76.60
54144;BME280;40050;47.324;18.792;2023-02-12T07:43:11;1020.54;;;5.69;76.42
54144;BME280;40050;47.324;18.792;2023-02-12T07:45:13;1020.57;;;5.69;76.33
54144;BME280;40050;47.324;18.792;2023-02-12T07:47:16;1020.65;;;5.79;76.33
54144;BME280;40050;47.324;18.792;2023-02-12T07:49:19;1020.69;;;5.89;76.22
54144;BME280;40050;47.324;18.792;2023-02-12T07:51:22;1020.74;;;5.93;76.25
54144;BME280;40050;47.324;18.792;2023-02-12T07:53:25;1020.83;;;6.08;76.16
54144;BME280;40050;47.324;18.792;2023-02-12T07:55:27;1020.93;;;6.24;76.12
54144;BME280;40050;47.324;18.792;2023-02-12T07:57:30;1020.88;;;6.35;75.95
54144;BME280;40050;47.324;18.792;2023-02-12T07:59:32;1020.98;;;6.51;75.79
54144;BME280;40050;47.324;18.792;2023-02-12T08:01:36;1021.00;;;6.66;75.30
54144;BME280;40050;47.324;18.792;2023-02-12T08:03:38;1020.93;;;6.73;74.90
54144;BME280;40050;47.324;18.792;2023-02-12T08:05:41;1020.95;;;6.90;74.23
54144;BME280;40050;47.324;18.792;2023-02-12T08:07:44;1020.88;;;6.99;74.40
54144;BME280;40050;47.324;18.792;2023-02-12T08:09:46;1020.86;;;7.15;73.77
54144;BME280;40050;47.324;18.792;2023-02-12T08:11:48;1020.88;;;7.25;73.45
54144;BME280;40050;47.324;18.792;2023-02-12T08:13:51;1020.85;;;7.35;73.65
54144;BME280;40050;47.324;18.792;2023-02-12T08:16:01;1020.85;;;7.49;72.60
54144;BME280;40050;47.324;18.792;2023-02-12T08:18:03;1020.95;;;7.60;71.76
54144;BME280;40050;47.324;18.792;2023-02-12T08:20:06;1021.01;;;7.70;71.91
54144;BME280;40050;47.324;18.792;2023-02-12T08:22:09;1021.00;;;7.77;71.16
54144;BME280;40050;47.324;18.792;2023-02-12T08:24:11;1020.97;;;7.88;71.65
54144;BME280;40050;47.324;18.792;2023-02-12T08:26:18;1021.01;;;8.04;71.74
54144;BME280;40050;47.324;18.792;2023-02-12T08:28:20;1020.99;;;8.13;71.13
54144;BME280;40050;47.324;18.792;2023-02-12T08:30:23;1021.05;;;8.24;69.86
54144;BME280;40050;47.324;18.792;2023-02-12T08:32:25;1021.12;;;8.33;69.38
54144;BME280;40050;47.324;18.792;2023-02-12T08:34:29;1021.18;;;8.40;69.13
54144;BME280;40050;47.324;18.792;2023-02-12T08:36:36;1021.14;;;8.46;69.35
54144;BME280;40050;47.324;18.792;2023-02-12T08:38:40;1021.22;;;8.58;69.34
54144;BME280;40050;47.324;18.792;2023-02-12T08:40:43;1021.21;;;8.81;68.88
54144;BME280;40050;47.324;18.792;2023-02-12T08:42:45;1021.28;;;8.91;68.17
54144;BME280;40050;47.324;18.792;2023-02-12T08:44:48;1021.26;;;9.01;67.74
54144;BME280;40050;47.324;18.792;2023-02-12T08:46:51;1021.31;;;9.10;67.07
54144;BME280;40050;47.324;18.792;2023-02-12T08:48:55;1021.29;;;9.22;67.35
54144;BME280;40050;47.324;18.792;2023-02-12T08:51:08;1021.32;;;9.37;67.05
54144;BME280;40050;47.324;18.792;2023-02-12T08:53:11;1021.33;;;9.53;66.58
54144;BME280;40050;47.324;18.792;2023-02-12T08:55:14;1021.35;;;9.70;65.73
54144;BME280;40050;47.324;18.792;2023-02-12T08:57:16;1021.39;;;9.82;64.69
54144;BME280;40050;47.324;18.792;2023-02-12T08:59:19;1021.42;;;9.90;65.10
54144;BME280;40050;47.324;18.792;2023-02-12T09:01:23;1021.38;;;10.02;64.04
54144;BME280;40050;47.324;18.792;2023-02-12T09:03:26;1021.47;;;10.13;64.45
54144;BME280;40050;47.324;18.792;2023-02-12T09:05:28;1021.45;;;10.25;64.34
54144;BME280;40050;47.324;18.792;2023-02-12T09:07:31;1021.48;;;10.37;64.17
54144;BME280;40050;47.324;18.792;2023-02-12T09:09:33;1021.51;;;10.55;63.67
54144;BME280;40050;47.324;18.792;2023-02-12T09:11:36;1021.48;;;10.68;63.14
54144;BME280;40050;47.324;18.792;2023-02-12T09:13:38;1021.59;;;10.81;62.91
54144;BME280;40050;47.324;18.792;2023-02-12T09:15:41;1021.51;;;10.93;62.49
54144;BME280;40050;47.324;18.792;2023-02-12T09:17:44;1021.59;;;11.05;61.72
54144;BME280;40050;47.324;18.792;2023-02-12T09:19:47;1021.56;;;11.14;60.96
54144;BME280;40050;47.324;18.792;2023-02-12T09:21:50;1021.62;;;11.27;60.98
54144;BME280;40050;47.324;18.792;2023-02-12T09:23:53;1021.63;;;11.32;60.70
54144;BME280;40050;47.324;18.792;2023-02-12T09:25:56;1021.61;;;11.42;60.10
54144;BME280;40050;47.324;18.792;2023-02-12T09:27:59;1021.67;;;11.56;60.02
54144;BME280;40050;47.324;18.792;2023-02-12T09:30:01;1021.59;;;11.63;59.66
54144;BME280;40050;47.324;18.792;2023-02-12T09:32:03;1021.67;;;11.79;59.68
54144;BME280;40050;47.324;18.792;2023-02-12T09:34:06;1021.66;;;11.90;58.32
54144;BME280;40050;47.324;18.792;2023-02-12T09:36:10;1021.69;;;11.95;56.76
54144;BME280;40050;47.324;18.792;2023-02-12T09:38:13;1021.62;;;11.98;57.36
54144;BME280;40050;47.324;18.792;2023-02-12T09:40:17;1021.65;;;11.99;57.59
54144;BME280;40050;47.324;18.792;2023-02-12T09:42:32;1021.68;;;12.06;57.21
54144;BME280;40050;47.324;18.792;2023-02-12T09:47:03;1021.74;;;12.19;56.76
54144;BME280;40050;47.324;18.792;2023-02-12T09:49:13;1021.72;;;12.22;56.62
54144;BME280;40050;47.324;18.792;2023-02-12T09:51:19;1021.74;;;12.33;56.13
54144;BME280;40050;47.324;18.792;2023-02-12T09:53:23;1021.75;;;12.39;55.89
54144;BME280;40050;47.324;18.792;2023-02-12T09:55:29;1021.80;;;12.46;55.35
54144;BME280;40050;47.324;18.792;2023-02-12T09:57:33;1021.77;;;12.50;54.74
54144;BME280;40050;47.324;18.792;2023-02-12T09:59:38;1021.70;;;12.52;54.75
54144;BME280;40050;47.324;18.792;2023-02-12T10:01:42;1021.79;;;12.53;54.92
54144;BME280;40050;47.324;18.792;2023-02-12T10:03:45;1021.67;;;12.58;55.15
54144;BME280;40050;47.324;18.792;2023-02-12T10:05:50;1021.70;;;12.59;53.94
54144;BME280;40050;47.324;18.792;2023-02-12T10:10:34;1021.72;;;12.58;54.02
54144;BME280;40050;47.324;18.792;2023-02-12T10:15:08;1021.81;;;12.72;53.76
54144;BME280;40050;47.324;18.792;2023-02-12T10:17:32;1021.84;;;12.75;53.87
54144;BME280;40050;47.324;18.792;2023-02-12T10:22:03;1021.86;;;12.93;53.60
54144;BME280;40050;47.324;18.792;2023-02-12T10:26:43;1021.89;;;13.09;53.55
54144;BME280;40050;47.324;18.792;2023-02-12T10:28:47;1021.92;;;13.16;53.40
54144;BME280;40050;47.324;18.792;2023-02-12T10:30:55;1021.90;;;13.19;52.26
54144;BME280;40050;47.324;18.792;2023-02-12T10:32:59;1021.89;;;13.22;52.26
54144;BME280;40050;47.324;18.792;2023-02-12T10:35:11;1021.92;;;13.25;52.39
54144;BME280;40050;47.324;18.792;2023-02-12T10:38:00;1021.91;;;13.25;52.00
54144;BME280;40050;47.324;18.792;2023-02-12T10:39:34;1021.83;;;13.28;52.46
54144;BME280;40050;47.324;18.792;2023-02-12T10:41:42;1021.84;;;13.27;52.14
54144;BME280;40050;47.324;18.792;2023-02-12T10:43:44;1021.78;;;13.25;51.57
54144;BME280;40050;47.324;18.792;2023-02-12T10:45:47;1021.78;;;13.20;51.51
54144;BME280;40050;47.324;18.792;2023-02-12T10:47:51;1021.78;;;13.17;52.02
54144;BME280;40050;47.324;18.792;2023-02-12T10:49:58;1021.81;;;13.21;52.13
54144;BME280;40050;47.324;18.792;2023-02-12T10:52:03;1021.79;;;13.26;51.56
54144;BME280;40050;47.324;18.792;2023-02-12T10:56:32;1021.81;;;13.29;50.86
54144;BME280;40050;47.324;18.792;2023-02-12T10:58:39;1021.81;;;13.31;51.45
54144;BME280;40050;47.324;18.792;2023-02-12T11:00:42;1021.82;;;13.35;51.43
54144;BME280;40050;47.324;18.792;2023-02-12T11:02:58;1021.51;;;13.18;51.05
54144;BME280;40050;47.324;18.792;2023-02-12T11:04:59;1021.79;;;13.35;50.78
54144;BME280;40050;47.324;18.792;2023-02-12T11:07:13;1021.77;;;13.36;50.94
54144;BME280;40050;47.324;18.792;2023-02-12T11:09:26;1021.82;;;13.42;51.16
54144;BME280;40050;47.324;18.792;2023-02-12T11:11:29;1021.80;;;13.42;50.89
54144;BME280;40050;47.324;18.792;2023-02-12T11:13:32;1021.79;;;13.48;50.75
54144;BME280;40050;47.324;18.792;2023-02-12T11:15:36;1021.76;;;13.51;51.02
54144;BME280;40050;47.324;18.792;2023-02-12T11:17:41;1021.75;;;13.60;50.75
54144;BME280;40050;47.324;18.792;2023-02-12T11:19:44;1021.81;;;13.59;50.04
54144;BME280;40050;47.324;18.792;2023-02-12T11:22:06;1021.79;;;13.56;49.94
54144;BME280;40050;47.324;18.792;2023-02-12T11:26:26;1021.83;;;13.57;49.93
54144;BME280;40050;47.324;18.792;2023-02-12T11:28:30;1021.85;;;13.61;50.12
54144;BME280;40050;47.324;18.792;2023-02-12T11:30:33;1021.83;;;13.74;50.15
54144;BME280;40050;47.324;18.792;2023-02-12T11:32:36;1021.80;;;13.82;49.88
54144;BME280;40050;47.324;18.792;2023-02-12T11:34:38;1021.79;;;13.87;49.79
54144;BME280;40050;47.324;18.792;2023-02-12T11:37:02;1021.76;;;13.86;49.20
54144;BME280;40050;47.324;18.792;2023-02-12T11:38:56;1021.86;;;13.83;49.22
54144;BME280;40050;47.324;18.792;2023-02-12T11:41:01;1021.85;;;13.89;49.25